createdAt,value
2018-10-06T00:00:35.015Z,6.43
2018-10-06T00:03:03.519Z,6.70
2018-10-06T00:05:31.923Z,6.83
2018-10-06T00:08:00.422Z,6.37
2018-10-06T00:10:28.953Z,6.13
2018-10-06T00:12:57.418Z,6.20
2018-10-06T00:15:25.813Z,6.23
2018-10-06T00:17:54.299Z,6.03
2018-10-06T00:20:22.705Z,6.50
2018-10-06T00:22:51.132Z,6.03
2018-10-06T00:25:19.502Z,6.10
2018-10-06T00:27:47.946Z,6.00
2018-10-06T00:30:16.349Z,6.37
2018-10-06T00:32:44.782Z,6.63
2018-10-06T00:35:13.205Z,6.20
2018-10-06T00:37:41.723Z,6.07
2018-10-06T00:40:10.129Z,5.90
2018-10-06T00:42:38.558Z,6.57
2018-10-06T00:45:06.978Z,6.20
2018-10-06T00:47:35.410Z,6.70
2018-10-06T00:50:03.948Z,6.30
2018-10-06T00:52:32.449Z,5.90
2018-10-06T00:55:00.882Z,6.10
2018-10-06T00:57:29.368Z,6.47
2018-10-06T00:59:57.819Z,5.77
2018-10-06T01:02:26.299Z,6.60
2018-10-06T01:04:54.697Z,6.27
2018-10-06T01:07:23.157Z,6.47
2018-10-06T01:09:51.569Z,6.07
2018-10-06T01:12:20.008Z,6.60
2018-10-06T01:14:48.573Z,6.03
2018-10-06T01:17:17.047Z,6.12
2018-10-06T01:19:45.437Z,5.87
2018-10-06T01:22:13.903Z,6.60
2018-10-06T01:24:42.329Z,5.30
2018-10-06T01:27:10.853Z,8.33
2018-10-06T01:29:39.266Z,5.90
2018-10-06T01:32:07.742Z,6.30
2018-10-06T01:34:36.106Z,5.97
2018-10-06T01:37:04.650Z,6.50
2018-10-06T01:39:33.155Z,5.80
2018-10-06T01:42:02.048Z,5.80
2018-10-06T01:44:30.482Z,6.07
2018-10-06T01:46:59.088Z,6.77
2018-10-06T01:49:27.565Z,6.13
2018-10-06T01:51:56.028Z,6.57
2018-10-06T01:54:24.513Z,5.50
2018-10-06T01:56:52.913Z,6.07
2018-10-06T01:59:21.398Z,6.57
2018-10-06T02:01:49.865Z,5.60
2018-10-06T02:04:21.978Z,6.60
2018-10-06T02:06:50.429Z,6.13
2018-10-06T02:09:19.009Z,5.77
2018-10-06T02:11:47.435Z,6.00
2018-10-06T02:14:15.897Z,7.17
2018-10-06T02:16:44.331Z,5.90
2018-10-06T02:19:12.820Z,5.60
2018-10-06T02:21:41.353Z,6.23
2018-10-06T02:24:09.800Z,5.80
2018-10-06T02:26:38.277Z,6.70
2018-10-06T02:29:06.761Z,6.17
2018-10-06T02:31:35.171Z,6.33
2018-10-06T02:34:03.716Z,6.20
2018-10-06T02:36:32.197Z,6.00
2018-10-06T02:39:00.788Z,5.80
2018-10-06T02:41:29.256Z,6.60
2018-10-06T02:43:57.795Z,6.27
2018-10-06T02:46:26.213Z,5.93
2018-10-06T02:48:54.670Z,6.00
2018-10-06T02:51:23.185Z,5.43
2018-10-06T02:53:51.647Z,6.42
2018-10-06T02:56:20.068Z,6.60
2018-10-06T02:58:48.520Z,6.58
2018-10-06T03:01:16.949Z,6.35
2018-10-06T03:03:45.453Z,6.03
2018-10-06T03:06:13.940Z,5.78
2018-10-06T03:08:42.431Z,6.22
2018-10-06T03:11:10.909Z,6.05
2018-10-06T03:13:39.358Z,5.22
2018-10-06T03:16:08.189Z,5.92
2018-10-06T03:18:36.665Z,5.80
2018-10-06T03:21:05.195Z,6.22
2018-10-06T03:23:33.683Z,6.20
2018-10-06T03:26:02.173Z,6.70
2018-10-06T03:28:30.713Z,5.65
2018-10-06T03:30:59.177Z,6.00
2018-10-06T03:33:28.547Z,5.67
2018-10-06T03:35:57.007Z,6.10
2018-10-06T03:38:25.496Z,6.53
2018-10-06T03:40:54.015Z,6.00
2018-10-06T03:43:22.434Z,6.13
2018-10-06T03:45:50.932Z,6.10
2018-10-06T03:48:19.369Z,5.80
2018-10-06T03:50:47.850Z,6.43
2018-10-06T03:53:16.298Z,6.05
2018-10-06T03:55:44.776Z,6.83
2018-10-06T03:58:13.272Z,6.83
2018-10-06T04:00:41.773Z,6.00
2018-10-06T04:03:10.284Z,6.67
2018-10-06T04:05:38.744Z,7.07
2018-10-06T04:08:07.154Z,7.40
2018-10-06T04:10:35.664Z,6.47
2018-10-06T04:13:04.095Z,6.47
2018-10-06T04:15:32.636Z,7.20
2018-10-06T04:18:01.114Z,6.42
2018-10-06T04:20:29.723Z,6.40
2018-10-06T04:22:58.212Z,7.60
2018-10-06T04:25:26.681Z,6.17
2018-10-06T04:27:55.176Z,7.20
2018-10-06T04:30:23.717Z,7.08
2018-10-06T04:32:52.108Z,7.25
2018-10-06T04:35:20.588Z,7.22
2018-10-06T04:37:49.052Z,8.10
2018-10-06T04:40:17.623Z,7.70
2018-10-06T04:42:46.062Z,7.70
2018-10-06T04:45:14.614Z,7.42
2018-10-06T04:47:43.027Z,7.70
2018-10-06T04:50:11.501Z,7.40
2018-10-06T04:52:39.933Z,6.92
2018-10-06T04:55:08.444Z,7.55
2018-10-06T04:57:36.901Z,6.90
2018-10-06T05:00:05.424Z,7.25
2018-10-06T05:02:33.862Z,7.67
2018-10-06T05:05:02.403Z,7.33
2018-10-06T05:07:30.865Z,8.50
2018-10-06T05:09:59.416Z,8.95
2018-10-06T05:12:27.843Z,8.30
2018-10-06T05:14:56.363Z,7.85
2018-10-06T05:17:24.891Z,7.80
2018-10-06T05:19:53.343Z,7.05
2018-10-06T05:22:21.824Z,6.87
2018-10-06T05:24:50.306Z,8.23
2018-10-06T05:27:18.828Z,8.00
2018-10-06T05:29:47.301Z,7.90
2018-10-06T05:32:15.821Z,7.28
2018-10-06T05:34:44.252Z,7.47
2018-10-06T05:37:12.771Z,9.33
2018-10-06T05:39:41.341Z,9.23
2018-10-06T05:42:09.813Z,8.05
2018-10-06T05:44:38.685Z,8.83
2018-10-06T05:47:07.177Z,7.30
2018-10-06T05:49:36.053Z,7.80
2018-10-06T05:52:04.625Z,7.70
2018-10-06T05:54:34.331Z,8.33
2018-10-06T05:57:02.906Z,7.15
2018-10-06T05:59:31.333Z,8.37
2018-10-06T06:02:00.072Z,7.45
2018-10-06T06:04:28.635Z,8.35
2018-10-06T06:06:57.201Z,7.37
2018-10-06T06:09:25.739Z,8.30
2018-10-06T06:11:54.292Z,7.80
2018-10-06T06:14:22.928Z,8.60
2018-10-06T06:16:51.380Z,8.10
2018-10-06T06:19:19.973Z,9.93
2018-10-06T06:21:48.459Z,9.65
2018-10-06T06:24:16.926Z,8.83
2018-10-06T06:26:45.547Z,9.18
2018-10-06T06:29:14.018Z,8.80
2018-10-06T06:31:43.010Z,8.95
2018-10-06T06:34:11.581Z,8.60
2018-10-06T06:36:40.187Z,8.40
2018-10-06T06:39:09.435Z,9.90
2018-10-06T06:41:38.260Z,9.95
2018-10-06T06:44:07.236Z,8.98
2018-10-06T06:46:35.833Z,8.80
2018-10-06T06:49:04.643Z,9.23
2018-10-06T06:51:33.237Z,8.80
2018-10-06T06:54:01.754Z,9.23
2018-10-06T06:56:30.395Z,9.20
2018-10-06T06:58:58.976Z,9.45
2018-10-06T07:01:27.511Z,9.58
2018-10-06T07:03:56.065Z,9.23
2018-10-06T07:06:24.642Z,10.20
2018-10-06T07:08:53.146Z,9.97
2018-10-06T07:11:21.894Z,11.43
2018-10-06T07:13:50.381Z,10.80
2018-10-06T07:16:19.018Z,10.20
2018-10-06T07:18:47.432Z,10.53
2018-10-06T07:21:15.931Z,9.83
2018-10-06T07:23:44.382Z,10.83
2018-10-06T07:26:12.893Z,10.60
2018-10-06T07:28:41.374Z,10.88
2018-10-06T07:31:09.961Z,11.30
2018-10-06T07:33:38.463Z,11.70
2018-10-06T07:36:07.194Z,12.03
2018-10-06T07:38:35.805Z,11.53
2018-10-06T07:41:04.800Z,11.60
2018-10-06T07:43:33.269Z,12.93
2018-10-06T07:46:02.001Z,13.10
2018-10-06T07:48:30.683Z,15.27
2018-10-06T07:50:59.255Z,14.17
2018-10-06T07:53:27.717Z,14.47
2018-10-06T07:55:56.188Z,16.13
2018-10-06T07:58:24.608Z,16.23
2018-10-06T08:00:53.238Z,17.20
2018-10-06T08:03:21.757Z,15.60
2018-10-06T08:05:50.294Z,16.17
2018-10-06T08:08:18.893Z,16.10
2018-10-06T08:10:47.454Z,16.07
2018-10-06T08:13:15.865Z,17.60
2018-10-06T08:15:44.357Z,18.83
2018-10-06T08:18:12.845Z,18.90
2018-10-06T08:20:41.385Z,18.30
2018-10-06T08:23:09.897Z,19.37
2018-10-06T08:25:38.456Z,20.80
2018-10-06T08:28:06.951Z,21.10
2018-10-06T08:30:36.520Z,20.10
2018-10-06T08:33:05.118Z,19.90
2018-10-06T08:35:33.758Z,20.33
2018-10-06T08:38:02.333Z,19.63
2018-10-06T08:40:31.373Z,21.47
2018-10-06T08:43:00.182Z,19.47
2018-10-06T08:45:28.985Z,22.53
2018-10-06T08:47:57.514Z,21.27
2018-10-06T08:50:26.229Z,21.30
2018-10-06T08:52:54.640Z,21.60
2018-10-06T08:55:23.092Z,20.40
2018-10-06T08:57:51.459Z,23.00
2018-10-06T09:00:19.929Z,22.30
2018-10-06T09:02:48.408Z,19.40
2018-10-06T09:05:16.883Z,20.07
2018-10-06T09:07:45.342Z,20.10
2018-10-06T09:10:13.801Z,18.73
2018-10-06T09:12:42.520Z,19.80
2018-10-06T09:15:11.000Z,18.40
2018-10-06T09:17:39.442Z,20.43
2018-10-06T09:20:08.032Z,20.47
2018-10-06T09:22:36.558Z,20.30
2018-10-06T09:25:05.123Z,19.50
2018-10-06T09:27:33.691Z,19.97
2018-10-06T09:30:02.269Z,21.73
2018-10-06T09:32:30.758Z,18.57
2018-10-06T09:34:59.365Z,19.63
2018-10-06T09:37:27.841Z,19.30
2018-10-06T09:39:56.371Z,19.73
2018-10-06T09:42:24.950Z,19.70
2018-10-06T09:44:53.320Z,18.10
2018-10-06T09:47:21.832Z,20.83
2018-10-06T09:49:50.389Z,19.03
2018-10-06T09:52:18.877Z,18.57
2018-10-06T09:54:47.399Z,18.13
2018-10-06T09:57:15.941Z,19.10
2018-10-06T09:59:44.443Z,17.67
2018-10-06T10:02:18.242Z,18.10
2018-10-06T10:04:46.748Z,17.80
2018-10-06T10:07:15.169Z,18.00
2018-10-06T10:09:43.646Z,18.43
2018-10-06T10:12:12.080Z,16.23
2018-10-06T10:14:40.593Z,14.30
2018-10-06T10:17:09.074Z,13.73
2018-10-06T10:19:37.513Z,13.90
2018-10-06T10:22:06.143Z,13.90
2018-10-06T10:24:35.110Z,14.57
2018-10-06T10:27:10.000Z,14.20
2018-10-06T10:29:38.481Z,14.63
2018-10-06T10:32:06.945Z,12.90
2018-10-06T10:34:35.647Z,14.17
2018-10-06T10:37:04.147Z,14.70
2018-10-06T10:39:32.870Z,13.40
2018-10-06T10:42:01.311Z,16.27
2018-10-06T10:44:29.950Z,15.20
2018-10-06T10:46:58.397Z,15.73
2018-10-06T10:49:26.998Z,15.50
2018-10-06T10:51:55.419Z,15.03
2018-10-06T10:54:23.907Z,14.40
2018-10-06T10:56:52.421Z,13.47
2018-10-06T10:59:20.934Z,13.17
2018-10-06T11:01:49.356Z,13.40
2018-10-06T11:04:18.175Z,11.70
2018-10-06T11:06:46.605Z,11.13
2018-10-06T11:09:15.113Z,12.17
2018-10-06T11:11:43.631Z,11.60
2018-10-06T11:14:12.077Z,11.50
2018-10-06T11:16:40.478Z,13.27
2018-10-06T11:19:08.977Z,12.90
2018-10-06T11:21:37.411Z,12.17
2018-10-06T11:24:05.963Z,12.00
2018-10-06T11:26:34.445Z,12.10
2018-10-06T11:29:03.015Z,10.93
2018-10-06T11:31:31.632Z,13.10
2018-10-06T11:34:00.175Z,11.03
2018-10-06T11:36:28.613Z,12.37
2018-10-06T11:38:57.097Z,11.60
2018-10-06T11:41:25.592Z,10.40
2018-10-06T11:43:54.097Z,12.10
2018-10-06T11:46:22.582Z,11.80
2018-10-06T11:48:51.060Z,10.30
2018-10-06T11:51:19.488Z,10.40
2018-10-06T11:53:48.030Z,10.70
2018-10-06T11:56:16.496Z,10.80
2018-10-06T11:58:45.011Z,10.63
2018-10-06T12:01:13.491Z,11.33
2018-10-06T12:03:42.011Z,11.37
2018-10-06T12:06:10.875Z,10.90
2018-10-06T12:08:39.841Z,9.90
2018-10-06T12:11:08.667Z,10.03
2018-10-06T12:13:37.867Z,10.07
2018-10-06T12:16:06.298Z,10.00
2018-10-06T12:18:34.839Z,8.70
2018-10-06T12:21:03.416Z,9.60
2018-10-06T12:23:31.990Z,9.87
2018-10-06T12:26:00.702Z,9.33
2018-10-06T12:28:29.180Z,9.50
2018-10-06T12:30:57.730Z,9.40
2018-10-06T12:33:26.222Z,10.03
2018-10-06T12:35:54.777Z,10.20
2018-10-06T12:38:23.531Z,8.87
2018-10-06T12:40:52.012Z,9.13
2018-10-06T12:43:20.396Z,9.80
2018-10-06T12:45:48.929Z,9.33
2018-10-06T12:48:17.426Z,9.60
2018-10-06T12:50:45.924Z,11.10
2018-10-06T12:53:14.398Z,9.50
2018-10-06T12:55:42.905Z,9.53
2018-10-06T12:58:11.351Z,8.27
2018-10-06T13:00:39.793Z,9.03
2018-10-06T13:03:08.302Z,8.27
2018-10-06T13:05:36.768Z,8.17
2018-10-06T13:08:05.332Z,7.60
2018-10-06T13:10:34.109Z,7.60
2018-10-06T13:13:02.737Z,8.50
2018-10-06T13:15:31.684Z,7.70
2018-10-06T13:18:00.259Z,7.97
2018-10-06T13:20:29.074Z,8.53
2018-10-06T13:22:57.655Z,8.00
2018-10-06T13:25:26.188Z,7.53
2018-10-06T13:27:54.673Z,9.00
2018-10-06T13:30:23.145Z,7.73
2018-10-06T13:32:51.663Z,8.17
2018-10-06T13:35:20.163Z,9.30
2018-10-06T13:37:48.681Z,8.20
2018-10-06T13:40:17.121Z,8.20
2018-10-06T13:42:45.702Z,8.27
2018-10-06T13:45:14.210Z,8.13
2018-10-06T13:47:42.748Z,7.23
2018-10-06T13:50:11.323Z,11.07
2018-10-06T13:52:39.836Z,7.77
2018-10-06T13:55:08.272Z,7.90
2018-10-06T13:57:36.891Z,8.27
2018-10-06T14:00:05.485Z,7.10
2018-10-06T14:02:34.080Z,6.80
2018-10-06T14:05:03.267Z,6.73
2018-10-06T14:07:32.031Z,7.00
2018-10-06T14:10:00.609Z,6.40
2018-10-06T14:12:29.339Z,6.40
2018-10-06T14:14:58.043Z,6.40
2018-10-06T14:17:26.651Z,5.83
2018-10-06T14:19:55.140Z,6.53
2018-10-06T14:22:23.588Z,6.00
2018-10-06T14:24:52.114Z,6.00
2018-10-06T14:27:20.670Z,6.07
2018-10-06T14:29:49.114Z,7.20
2018-10-06T14:32:18.450Z,7.00
2018-10-06T14:34:46.878Z,7.80
2018-10-06T14:37:15.406Z,5.77
2018-10-06T14:39:43.913Z,6.30
2018-10-06T14:42:12.370Z,6.90
2018-10-06T14:44:40.886Z,5.77
2018-10-06T14:47:09.440Z,6.70
2018-10-06T14:49:37.848Z,6.33
2018-10-06T14:52:06.435Z,5.90
2018-10-06T14:54:34.987Z,5.67
2018-10-06T14:57:03.634Z,5.80
2018-10-06T14:59:32.279Z,5.30
2018-10-06T15:02:01.148Z,6.90
2018-10-06T15:04:29.712Z,5.33
2018-10-06T15:06:58.686Z,6.10
2018-10-06T15:09:27.290Z,7.50
2018-10-06T15:11:55.921Z,6.63
2018-10-06T15:14:24.464Z,7.07
2018-10-06T15:16:52.932Z,6.40
2018-10-06T15:19:21.497Z,6.83
2018-10-06T15:21:49.997Z,6.07
2018-10-06T15:24:18.551Z,6.77
2018-10-06T15:26:47.089Z,7.00
2018-10-06T15:29:15.729Z,7.60
2018-10-06T15:31:44.240Z,7.53
2018-10-06T15:34:12.878Z,6.43
2018-10-06T15:36:41.454Z,7.10
2018-10-06T15:39:10.277Z,7.73
2018-10-06T15:41:39.168Z,7.47
2018-10-06T15:44:07.703Z,6.83
2018-10-06T15:46:36.221Z,6.70
2018-10-06T15:49:05.028Z,6.43
2018-10-06T15:51:33.925Z,6.60
2018-10-06T15:54:02.775Z,6.50
2018-10-06T15:56:31.385Z,7.37
2018-10-06T15:59:00.068Z,6.83
2018-10-06T16:01:28.693Z,7.90
2018-10-06T16:03:57.265Z,7.70
2018-10-06T16:06:26.867Z,7.43
2018-10-06T16:08:55.544Z,7.33
2018-10-06T16:11:23.995Z,8.33
2018-10-06T16:13:52.441Z,8.33
2018-10-06T16:16:20.958Z,8.43
2018-10-06T16:18:49.547Z,7.83
2018-10-06T16:21:18.052Z,7.73
2018-10-06T16:23:46.619Z,7.27
2018-10-06T16:26:15.162Z,7.87
2018-10-06T16:28:43.897Z,7.87
2018-10-06T16:31:12.353Z,9.17
2018-10-06T16:33:42.970Z,7.97
2018-10-06T16:36:11.818Z,8.43
2018-10-06T16:38:40.351Z,8.17
2018-10-06T16:41:09.306Z,8.20
2018-10-06T16:43:37.902Z,9.67
2018-10-06T16:46:06.736Z,9.23
2018-10-06T16:48:35.521Z,9.50
2018-10-06T16:51:04.359Z,8.20
2018-10-06T16:53:32.866Z,10.53
2018-10-06T16:56:01.485Z,10.70
2018-10-06T16:58:30.113Z,10.73
2018-10-06T17:00:58.857Z,10.30
2018-10-06T17:03:32.932Z,13.93
2018-10-06T17:06:01.915Z,10.00
2018-10-06T17:08:34.293Z,10.77
2018-10-06T17:11:03.439Z,11.20
2018-10-06T17:13:32.769Z,10.17
2018-10-06T17:16:01.808Z,9.50
2018-10-06T17:18:30.675Z,9.20
2018-10-06T17:20:59.793Z,9.77
2018-10-06T17:23:28.241Z,8.93
2018-10-06T17:25:56.773Z,9.63
2018-10-06T17:28:25.258Z,11.10
2018-10-06T17:30:53.726Z,10.67
2018-10-06T17:33:22.156Z,10.80
2018-10-06T17:35:57.411Z,10.70
2018-10-06T17:38:25.963Z,9.00
2018-10-06T17:40:54.511Z,9.63
2018-10-06T17:43:23.289Z,9.00
2018-10-06T17:45:51.876Z,9.93
2018-10-06T17:48:20.361Z,10.40
2018-10-06T17:50:48.955Z,10.97
2018-10-06T17:53:17.381Z,10.87
2018-10-06T17:55:51.028Z,16.30
2018-10-06T17:58:19.479Z,9.27
2018-10-06T18:00:48.140Z,9.43
2018-10-06T18:03:16.650Z,8.87
2018-10-06T18:05:45.205Z,8.60
2018-10-06T18:08:13.692Z,9.20
2018-10-06T18:10:42.238Z,8.33
2018-10-06T18:13:10.813Z,8.40
2018-10-06T18:15:39.288Z,9.00
2018-10-06T18:18:08.165Z,8.17
2018-10-06T18:20:36.770Z,9.37
2018-10-06T18:23:05.233Z,8.70
2018-10-06T18:25:33.730Z,8.10
2018-10-06T18:28:02.262Z,7.63
2018-10-06T18:30:30.914Z,8.50
2018-10-06T18:32:59.504Z,7.93
2018-10-06T18:35:28.201Z,8.03
2018-10-06T18:37:56.646Z,7.70
2018-10-06T18:40:25.127Z,7.77
2018-10-06T18:42:53.597Z,7.87
2018-10-06T18:45:22.053Z,8.00
2018-10-06T18:47:50.559Z,7.40
2018-10-06T18:50:19.033Z,8.70
2018-10-06T18:52:47.464Z,8.23
2018-10-06T18:55:16.039Z,7.83
2018-10-06T18:57:44.536Z,7.33
2018-10-06T19:00:13.042Z,8.27
2018-10-06T19:02:41.502Z,8.43
2018-10-06T19:05:10.144Z,8.10
2018-10-06T19:07:38.621Z,8.80
2018-10-06T19:10:07.450Z,8.43
2018-10-06T19:12:35.843Z,9.03
2018-10-06T19:15:04.637Z,8.53
2018-10-06T19:17:33.252Z,9.27
2018-10-06T19:20:02.001Z,9.80
2018-10-06T19:22:30.700Z,10.23
2018-10-06T19:24:59.298Z,10.60
2018-10-06T19:27:28.061Z,9.57
2018-10-06T19:29:56.899Z,10.70
2018-10-06T19:32:25.389Z,10.60
2018-10-06T19:34:53.853Z,11.10
2018-10-06T19:37:22.293Z,8.20
2018-10-06T19:39:51.315Z,8.17
2018-10-06T19:42:19.809Z,8.90
2018-10-06T19:44:48.265Z,9.13
2018-10-06T19:47:16.782Z,7.90
2018-10-06T19:49:45.266Z,8.70
2018-10-06T19:52:13.730Z,8.00
2018-10-06T19:54:42.189Z,8.57
2018-10-06T19:57:10.774Z,7.80
2018-10-06T19:59:39.201Z,6.90
2018-10-06T20:02:08.090Z,7.97
2018-10-06T20:04:36.734Z,7.10
2018-10-06T20:07:05.960Z,7.50
2018-10-06T20:09:34.824Z,7.90
2018-10-06T20:12:03.439Z,9.17
2018-10-06T20:14:32.373Z,9.33
2018-10-06T20:17:01.251Z,8.80
2018-10-06T20:19:29.808Z,7.73
2018-10-06T20:21:58.368Z,7.47
2018-10-06T20:24:26.753Z,7.17
2018-10-06T20:26:55.392Z,9.37
2018-10-06T20:29:23.796Z,7.70
2018-10-06T20:31:52.244Z,10.70
2018-10-06T20:34:20.724Z,9.97
2018-10-06T20:36:49.169Z,8.17
2018-10-06T20:39:17.669Z,7.50
2018-10-06T20:41:46.128Z,7.67
2018-10-06T20:44:14.539Z,9.37
2018-10-06T20:46:43.050Z,8.90
2018-10-06T20:49:11.533Z,9.03
2018-10-06T20:51:40.053Z,9.10
2018-10-06T20:54:08.781Z,8.03
2018-10-06T20:56:37.596Z,9.40
2018-10-06T20:59:06.351Z,8.47
2018-10-06T21:01:36.659Z,9.00
2018-10-06T21:04:05.218Z,9.10
2018-10-06T21:06:33.975Z,9.23
2018-10-06T21:09:06.442Z,9.40
2018-10-06T21:11:35.056Z,9.23
2018-10-06T21:14:03.915Z,8.13
2018-10-06T21:16:32.771Z,8.90
2018-10-06T21:19:01.666Z,10.27
2018-10-06T21:21:30.524Z,9.60
2018-10-06T21:23:59.100Z,8.90
2018-10-06T21:26:27.594Z,9.47
2018-10-06T21:28:56.113Z,8.90
2018-10-06T21:31:24.890Z,9.30
2018-10-06T21:33:53.494Z,8.17
2018-10-06T21:36:22.033Z,7.87
2018-10-06T21:38:50.584Z,7.63
2018-10-06T21:41:19.015Z,7.70
2018-10-06T21:43:47.529Z,20.97
2018-10-06T21:46:16.061Z,9.40
2018-10-06T21:48:44.572Z,8.00
2018-10-06T21:51:13.087Z,7.63
2018-10-06T21:53:41.668Z,8.30
2018-10-06T21:56:10.146Z,8.47
2018-10-06T21:58:38.683Z,9.13
2018-10-06T22:01:10.009Z,8.93
2018-10-06T22:03:39.321Z,7.70
2018-10-06T22:06:07.868Z,7.67
2018-10-06T22:08:36.411Z,6.40
2018-10-06T22:11:05.089Z,7.27
2018-10-06T22:13:33.611Z,6.80
2018-10-06T22:16:02.226Z,6.80
2018-10-06T22:18:30.784Z,6.70
2018-10-06T22:20:59.413Z,7.17
2018-10-06T22:23:28.080Z,7.20
2018-10-06T22:25:56.612Z,6.97
2018-10-06T22:28:25.111Z,6.23
2018-10-06T22:30:53.573Z,6.53
2018-10-06T22:33:22.090Z,6.20
2018-10-06T22:35:50.504Z,6.77
2018-10-06T22:38:19.032Z,6.23
2018-10-06T22:40:47.492Z,7.10
2018-10-06T22:43:15.952Z,6.33
2018-10-06T22:45:44.688Z,7.33
2018-10-06T22:48:13.205Z,6.90
2018-10-06T22:50:42.073Z,6.27
2018-10-06T22:53:10.540Z,7.00
2018-10-06T22:55:39.003Z,8.73
2018-10-06T22:58:07.408Z,6.70
2018-10-06T23:00:35.854Z,6.50
2018-10-06T23:03:04.510Z,6.90
2018-10-06T23:05:33.045Z,6.57
2018-10-06T23:08:01.569Z,6.37
2018-10-06T23:10:30.157Z,6.13
2018-10-06T23:12:58.722Z,6.10
2018-10-06T23:15:27.203Z,6.10
2018-10-06T23:17:55.687Z,6.27
2018-10-06T23:20:24.117Z,6.37
2018-10-06T23:22:52.601Z,6.60
2018-10-06T23:25:21.087Z,6.13
2018-10-06T23:27:49.647Z,6.70
2018-10-06T23:30:18.101Z,5.10
2018-10-06T23:32:46.639Z,5.30
2018-10-06T23:35:15.159Z,5.70
2018-10-06T23:37:43.693Z,5.47
2018-10-06T23:40:12.159Z,6.77
2018-10-06T23:42:40.646Z,6.10
2018-10-06T23:45:09.149Z,5.70
2018-10-06T23:47:37.684Z,6.17
2018-10-06T23:50:06.296Z,5.53
2018-10-06T23:52:34.872Z,5.63
2018-10-06T23:55:03.477Z,5.30
2018-10-06T23:57:32.049Z,4.90
